Time;durP1;ratioP1;P1;durP2;ratioP2;P2;SDS_P1;SDS_P2;PMS_P1;PMS_P2;Temp;Humidity;BMP_temperature;BMP_pressure;BME280_temperature;BME280_humidity;BME280_pressure;Samples;Min_cycle;Max_cycle;Signal;HPM_P1;HPM_P2
2024/04/12 00:01:01;;;;;;;12.60;7.68;;;11.60;1.00;;;;;;5143579;27;20008;-75
2024/04/12 00:03:28;;;;;;;12.88;7.85;;;11.70;1.00;;;;;;5137971;27;20012;-74
2024/04/12 00:05:57;;;;;;;11.90;7.55;;;11.60;1.00;;;;;;5105358;28;19997;-75
2024/04/12 00:08:28;;;;;;;10.50;7.00;;;11.70;1.00;;;;;;5065575;28;20435;-74
2024/04/12 00:10:56;;;;;;;12.98;7.78;;;11.70;1.00;;;;;;5070748;27;20333;-74
2024/04/12 00:13:26;;;;;;;14.18;7.25;;;11.70;1.00;;;;;;5204418;27;20052;-74
2024/04/12 00:15:55;;;;;;;11.55;6.93;;;11.80;1.00;;;;;;5175561;27;20447;-74
2024/04/12 00:18:22;;;;;;;12.43;7.38;;;11.80;1.00;;;;;;5177172;27;20012;-74
2024/04/12 00:20:48;;;;;;;14.57;7.75;;;11.80;1.00;;;;;;5241636;27;20062;-74
2024/04/12 00:23:14;;;;;;;11.98;7.72;;;11.90;1.00;;;;;;5309939;27;20005;-74
2024/04/12 00:25:40;;;;;;;13.57;7.60;;;11.80;99.90;;;;;;5344198;26;20167;-74
2024/04/12 00:28:06;;;;;;;14.80;7.82;;;11.90;99.90;;;;;;5275267;27;20002;-74
2024/04/12 00:30:38;;;;;;;12.38;8.05;;;11.90;1.00;;;;;;5275447;27;19999;-74
2024/04/12 00:33:09;;;;;;;12.18;7.50;;;11.70;1.00;;;;;;5275564;27;20371;-74
2024/04/12 00:35:36;;;;;;;15.55;8.02;;;11.70;1.00;;;;;;5243727;27;19999;-74
2024/04/12 00:38:09;;;;;;;11.82;7.43;;;11.60;1.00;;;;;;5208283;27;20124;-74
2024/04/12 00:40:41;;;;;;;12.63;7.65;;;11.60;1.00;;;;;;5208521;27;19999;-74
2024/04/12 00:43:13;;;;;;;14.27;8.23;;;11.60;1.00;;;;;;5177323;27;20040;-74
2024/04/12 00:45:45;;;;;;;14.30;7.95;;;11.50;1.00;;;;;;5178745;27;20048;-74
2024/04/12 00:48:10;;;;;;;15.40;8.48;;;11.40;1.00;;;;;;5244857;27;20046;-74
2024/04/12 00:50:37;;;;;;;13.30;7.70;;;11.40;1.00;;;;;;5278849;27;20484;-75
2024/04/12 00:53:04;;;;;;;11.93;7.25;;;11.40;33.00;;;;;;5278494;27;20127;-75
2024/04/12 00:55:33;;;;;;;15.45;7.95;;;11.30;83.20;;;;;;5244372;27;20441;-75
2024/04/12 00:58:02;;;;;;;13.45;8.18;;;11.30;41.00;;;;;;5211532;27;20128;-75
2024/04/12 01:00:35;;;;;;;13.60;7.65;;;11.30;99.90;;;;;;5211786;27;20010;-75
2024/04/12 01:03:05;;;;;;;13.55;8.65;;;11.20;99.90;;;;;;5175812;27;20117;-73
2024/04/12 01:05:35;;;;;;;12.88;8.25;;;11.20;99.90;;;;;;5116614;27;20002;-74
2024/04/12 01:08:01;;;;;;;11.73;8.07;;;11.20;1.00;;;;;;5178363;27;20475;-74
2024/04/12 01:10:30;;;;;;;14.93;9.40;;;11.10;1.00;;;;;;5178499;27;20000;-74
2024/04/12 01:12:57;;;;;;;14.43;9.25;;;11.10;1.00;;;;;;5178371;27;20324;-74
2024/04/12 01:15:32;;;;;;;13.90;9.13;;;10.90;1.00;;;;;;5178511;27;20008;-74
2024/04/12 01:18:00;;;;;;;16.77;9.52;;;10.80;23.20;;;;;;5178537;27;20040;-74
2024/04/12 01:20:26;;;;;;;15.82;9.57;;;10.80;99.90;;;;;;5210809;27;19999;-74
2024/04/12 01:22:57;;;;;;;12.80;8.98;;;10.80;99.90;;;;;;5244241;27;20009;-74
2024/04/12 01:25:28;;;;;;;13.32;8.13;;;10.70;99.90;;;;;;5245397;27;19995;-74
2024/04/12 01:27:55;;;;;;;14.30;9.40;;;10.70;99.90;;;;;;5278983;27;20010;-75
2024/04/12 01:30:21;;;;;;;17.20;9.75;;;10.60;99.90;;;;;;5311674;27;19994;-74
2024/04/12 01:32:50;;;;;;;14.75;9.38;;;10.50;1.00;;;;;;5312193;27;20012;-74
2024/04/12 01:35:16;;;;;;;15.27;9.88;;;10.50;1.00;;;;;;5417063;26;19999;-74
2024/04/12 01:37:43;;;;;;;15.80;9.80;;;10.40;99.90;;;;;;5417061;26;20004;-75
2024/04/12 01:40:12;;;;;;;15.38;9.27;;;10.40;99.90;;;;;;5417054;26;20006;-75
2024/04/12 01:42:42;;;;;;;17.27;9.60;;;10.30;93.70;;;;;;5417033;26;20000;-74
2024/04/12 01:45:14;;;;;;;18.85;10.13;;;10.30;99.90;;;;;;5417000;26;20022;-74
2024/04/12 01:47:45;;;;;;;17.67;10.00;;;10.30;99.90;;;;;;5417234;26;20352;-74
2024/04/12 01:50:13;;;;;;;18.50;10.30;;;10.30;99.90;;;;;;5381049;26;20113;-74
2024/04/12 01:52:53;;;;;;;17.42;10.43;;;10.30;99.90;;;;;;5312303;27;20001;-75
2024/04/12 01:55:20;;;;;;;15.50;9.32;;;10.30;99.90;;;;;;5309728;27;19997;-74
2024/04/12 01:57:55;;;;;;;17.23;9.90;;;10.30;99.90;;;;;;5277978;27;19998;-74
2024/04/12 02:00:23;;;;;;;17.48;10.13;;;10.30;95.40;;;;;;5278438;27;20034;-74
2024/04/12 02:02:52;;;;;;;17.10;10.13;;;10.40;99.90;;;;;;5278064;27;19994;-74
2024/04/12 02:05:29;;;;;;;17.80;10.18;;;10.40;91.50;;;;;;5277326;27;20022;-74
2024/04/12 02:07:55;;;;;;;18.45;9.80;;;10.30;62.60;;;;;;5277605;27;20008;-73
2024/04/12 02:10:22;;;;;;;15.95;10.38;;;10.30;99.90;;;;;;5277734;27;20329;-74
2024/04/12 02:12:53;;;;;;;16.15;10.98;;;10.30;99.90;;;;;;5277741;27;19998;-74
2024/04/12 02:15:28;;;;;;;16.88;10.98;;;10.30;99.90;;;;;;5277431;27;20351;-74
2024/04/12 02:17:57;;;;;;;15.45;10.30;;;10.30;99.90;;;;;;5278395;27;19994;-74
2024/04/12 02:20:33;;;;;;;18.42;10.40;;;10.30;99.90;;;;;;5282887;27;20076;-73
2024/04/12 02:23:05;;;;;;;14.45;10.32;;;10.30;99.90;;;;;;5319281;26;20000;-74
2024/04/12 02:25:37;;;;;;;15.48;10.68;;;10.40;99.90;;;;;;5357310;26;20060;-74
2024/04/12 02:28:08;;;;;;;18.23;10.40;;;10.40;99.90;;;;;;5416616;26;20015;-74
2024/04/12 02:30:41;;;;;;;15.68;9.93;;;10.40;99.90;;;;;;5381259;26;20137;-74
2024/04/12 02:33:11;;;;;;;18.20;11.07;;;10.40;99.90;;;;;;5381174;26;20003;-73
2024/04/12 02:35:41;;;;;;;19.42;10.65;;;10.40;99.90;;;;;;5339271;26;19994;-74
2024/04/12 02:38:08;;;;;;;18.48;10.68;;;10.40;99.90;;;;;;5311151;27;20127;-74
2024/04/12 02:40:33;;;;;;;20.83;10.18;;;10.50;99.90;;;;;;5243204;27;19995;-74
2024/04/12 02:43:04;;;;;;;16.95;10.05;;;10.50;99.90;;;;;;5243768;27;20146;-73
2024/04/12 02:45:30;;;;;;;19.23;10.73;;;10.50;99.90;;;;;;5243222;27;20005;-75
2024/04/12 02:47:57;;;;;;;15.95;10.02;;;10.50;99.90;;;;;;5176934;27;19996;-75
2024/04/12 02:50:23;;;;;;;17.98;10.13;;;10.60;99.90;;;;;;5176957;27;20012;-74
2024/04/12 02:52:49;;;;;;;20.45;10.40;;;10.60;99.90;;;;;;5177316;27;20052;-74
2024/04/12 02:55:15;;;;;;;21.73;11.27;;;10.50;99.90;;;;;;5112515;28;20395;-74
2024/04/12 02:57:41;;;;;;;16.42;10.82;;;10.50;99.90;;;;;;5112496;28;20002;-74
2024/04/12 03:00:23;;;;;;;16.02;10.80;;;10.50;99.90;;;;;;5112291;28;19998;-74
2024/04/12 03:02:52;;;;;;;18.20;11.32;;;10.60;99.90;;;;;;5176494;27;20489;-75
2024/04/12 03:05:24;;;;;;;15.98;10.50;;;10.50;99.90;;;;;;5143992;27;20004;-74
2024/04/12 03:07:52;;;;;;;18.00;11.10;;;10.60;99.90;;;;;;5176778;27;20077;-74
2024/04/12 03:10:19;;;;;;;17.45;10.98;;;10.60;99.90;;;;;;5176805;27;19996;-74
2024/04/12 03:12:46;;;;;;;23.48;11.60;;;10.60;99.90;;;;;;5273956;27;19997;-75
2024/04/12 03:15:11;;;;;;;19.38;10.60;;;10.60;99.90;;;;;;5276462;27;20030;-74
2024/04/12 03:17:37;;;;;;;18.90;11.23;;;10.70;99.90;;;;;;5276890;27;20057;-74
2024/04/12 03:20:03;;;;;;;17.60;11.10;;;10.70;99.90;;;;;;5308268;27;19993;-74
2024/04/12 03:22:30;;;;;;;22.00;12.32;;;10.70;99.90;;;;;;5310215;26;20025;-75
2024/04/12 03:24:56;;;;;;;22.48;12.68;;;10.60;99.90;;;;;;5310094;26;20008;-74
2024/04/12 03:27:22;;;;;;;25.02;12.07;;;10.60;99.90;;;;;;5375930;26;20004;-74
2024/04/12 03:29:49;;;;;;;25.50;12.05;;;10.60;99.90;;;;;;5344691;26;20092;-74
2024/04/12 03:32:15;;;;;;;26.25;12.88;;;10.60;99.90;;;;;;5344987;26;20373;-74
2024/04/12 03:34:40;;;;;;;20.70;12.75;;;10.60;99.90;;;;;;5310186;26;20000;-73
2024/04/12 03:37:23;;;;;;;25.23;11.90;;;10.70;99.90;;;;;;5182659;27;19992;-74
2024/04/12 03:40:00;;;;;;;20.45;12.07;;;10.70;99.90;;;;;;5176911;27;19997;-74
2024/04/12 03:42:28;;;;;;;17.80;12.00;;;10.70;1.00;;;;;;5176432;27;20000;-74
2024/04/12 03:44:58;;;;;;;27.20;14.88;;;10.70;99.90;;;;;;5207840;27;20000;-74
2024/04/12 03:47:25;;;;;;;25.20;14.05;;;10.60;99.90;;;;;;5176350;27;19996;-74
2024/04/12 03:49:52;;;;;;;28.42;15.90;;;10.60;99.90;;;;;;5176201;27;20004;-74
2024/04/12 03:52:20;;;;;;;23.13;14.27;;;10.60;99.90;;;;;;5176401;27;19996;-74
2024/04/12 03:54:46;;;;;;;27.42;14.88;;;10.60;99.90;;;;;;5176187;27;20056;-74
2024/04/12 03:57:12;;;;;;;26.50;15.57;;;10.60;99.90;;;;;;5176508;27;20000;-74
2024/04/12 03:59:38;;;;;;;24.08;14.88;;;10.60;99.90;;;;;;5176569;27;20194;-74
2024/04/12 04:02:07;;;;;;;21.55;12.75;;;10.60;99.90;;;;;;5209422;27;20327;-74
2024/04/12 04:04:37;;;;;;;24.98;11.38;;;10.50;99.90;;;;;;5209933;27;20442;-75
2024/04/12 04:07:06;;;;;;;19.08;11.48;;;10.50;99.90;;;;;;5211862;27;20484;-75
2024/04/12 04:09:32;;;;;;;18.92;11.55;;;10.60;99.90;;;;;;5241974;27;20431;-75
2024/04/12 04:11:59;;;;;;;20.90;11.27;;;10.60;99.90;;;;;;5242195;27;19991;-75
2024/04/12 04:14:28;;;;;;;31.15;13.27;;;10.70;99.90;;;;;;5175924;27;19996;-75
2024/04/12 04:16:55;;;;;;;19.90;12.13;;;10.70;99.90;;;;;;5176195;27;19996;-75
2024/04/12 04:19:33;;;;;;;18.40;11.20;;;10.80;99.90;;;;;;5177799;27;20024;-74
2024/04/12 04:22:04;;;;;;;17.90;10.95;;;11.00;99.90;;;;;;5179613;27;20032;-74
2024/04/12 04:24:34;;;;;;;19.10;10.55;;;11.10;99.90;;;;;;5179019;27;20007;-75
2024/04/12 04:27:08;;;;;;;17.98;11.45;;;11.50;97.70;;;;;;5179267;27;20337;-75
2024/04/12 04:29:35;;;;;;;17.63;10.35;;;11.80;5.20;;;;;;5179383;27;20464;-74
2024/04/12 04:32:00;;;;;;;18.55;9.95;;;12.30;1.00;;;;;;5179488;27;19992;-74
2024/04/12 04:34:26;;;;;;;17.15;9.48;;;13.00;99.90;;;;;;5179494;27;20377;-75
2024/04/12 04:36:56;;;;;;;15.88;9.40;;;13.70;1.00;;;;;;5178656;27;19996;-75
2024/04/12 04:39:23;;;;;;;17.77;10.27;;;14.50;99.90;;;;;;5178985;27;20012;-75
2024/04/12 04:41:50;;;;;;;15.55;9.40;;;15.50;99.90;;;;;;5245293;27;20006;-75
2024/04/12 04:44:16;;;;;;;19.98;9.73;;;16.20;1.00;;;;;;5244898;27;19995;-75
2024/04/12 04:46:45;;;;;;;19.15;9.90;;;16.90;99.90;;;;;;5244421;27;19999;-76
2024/04/12 04:49:15;;;;;;;16.83;9.38;;;17.40;1.00;;;;;;5244626;27;20571;-76
2024/04/12 04:51:42;;;;;;;16.02;9.70;;;17.90;1.00;;;;;;5244905;27;20000;-76
2024/04/12 04:54:11;;;;;;;18.02;8.63;;;18.50;99.90;;;;;;5244625;27;20058;-75
2024/04/12 04:56:39;;;;;;;16.25;9.48;;;18.90;99.90;;;;;;5244895;27;19999;-74
2024/04/12 04:59:06;;;;;;;16.23;8.40;;;19.20;99.90;;;;;;5245163;27;20026;-74
2024/04/12 05:01:34;;;;;;;15.80;8.98;;;19.60;99.90;;;;;;5244903;27;20006;-74
2024/04/12 05:04:00;;;;;;;18.60;9.32;;;20.10;99.90;;;;;;5215527;27;20011;-73
2024/04/12 05:06:27;;;;;;;22.77;9.10;;;20.50;72.80;;;;;;5211889;27;19999;-74
2024/04/12 05:08:56;;;;;;;15.38;8.98;;;20.80;22.40;;;;;;5271674;27;20426;-76
2024/04/12 05:11:24;;;;;;;16.10;8.45;;;21.40;1.00;;;;;;5278573;27;19998;-75
2024/04/12 05:13:55;;;;;;;14.57;7.60;;;21.40;1.00;;;;;;5244447;27;20423;-74
2024/04/12 05:16:22;;;;;;;17.60;8.43;;;21.70;1.00;;;;;;5211755;27;20067;-75
2024/04/12 05:18:53;;;;;;;14.73;8.63;;;22.30;1.00;;;;;;5242242;27;20027;-76
2024/04/12 05:21:20;;;;;;;15.40;7.53;;;23.10;1.00;;;;;;5244440;27;20017;-76
2024/04/12 05:23:47;;;;;;;12.10;7.18;;;23.90;1.00;;;;;;5244383;27;19999;-76
2024/04/12 05:26:13;;;;;;;13.50;7.55;;;24.50;1.00;;;;;;5275321;27;20006;-75
2024/04/12 05:28:38;;;;;;;16.80;7.47;;;25.00;1.00;;;;;;5287340;27;20056;-76
2024/04/12 05:31:11;;;;;;;14.32;7.63;;;25.50;1.00;;;;;;5310182;27;20060;-76
2024/04/12 05:33:42;;;;;;;11.45;6.85;;;26.00;99.90;;;;;;5312854;27;19998;-75
2024/04/12 05:36:09;;;;;;;11.98;7.47;;;26.40;99.90;;;;;;5312415;26;19994;-75
2024/04/12 05:38:36;;;;;;;15.43;7.40;;;26.60;99.90;;;;;;5312065;27;20034;-75
2024/04/12 05:41:04;;;;;;;10.80;6.18;;;26.70;99.90;;;;;;5311605;27;20030;-75
2024/04/12 05:43:30;;;;;;;13.57;6.55;;;26.50;99.90;;;;;;5312303;27;20396;-75
2024/04/12 05:45:57;;;;;;;15.63;7.10;;;26.50;99.90;;;;;;5312331;27;19994;-75
2024/04/12 05:48:24;;;;;;;12.60;6.80;;;26.60;99.90;;;;;;5304755;27;19996;-75
2024/04/12 05:50:53;;;;;;;9.85;6.18;;;27.00;99.90;;;;;;5311454;27;20048;-75
2024/04/12 05:53:24;;;;;;;11.50;6.72;;;27.10;99.90;;;;;;5311910;27;19997;-75
2024/04/12 05:56:20;;;;;;;10.20;6.55;;;26.90;99.90;;;;;;5312175;27;20013;-75
2024/04/12 05:58:40;;;;;;;11.50;5.78;;;27.20;99.90;;;;;;5311644;27;20004;-75
2024/04/12 06:01:07;;;;;;;17.85;6.82;;;28.10;99.90;;;;;;5312151;27;20002;-75
2024/04/12 06:03:42;;;;;;;7.40;5.18;;;28.80;99.90;;;;;;5311167;27;20002;-74
2024/04/12 06:06:09;;;;;;;14.20;6.03;;;29.30;99.90;;;;;;5311538;27;20008;-75
2024/04/12 06:08:38;;;;;;;8.43;5.32;;;29.40;99.90;;;;;;5311728;27;19997;-74
2024/04/12 06:11:08;;;;;;;10.63;5.85;;;29.30;99.90;;;;;;5311517;27;20417;-74
2024/04/12 06:13:35;;;;;;;8.68;5.53;;;29.20;99.90;;;;;;5311409;27;20515;-74
2024/04/12 06:16:01;;;;;;;12.50;5.70;;;29.30;99.90;;;;;;5312208;27;19998;-73
2024/04/12 06:18:28;;;;;;;10.80;5.80;;;29.90;99.90;;;;;;5314968;26;20445;-74
2024/04/12 06:20:55;;;;;;;7.55;4.97;;;29.70;99.90;;;;;;5346015;26;20001;-74
2024/04/12 06:23:21;;;;;;;10.73;5.65;;;30.60;99.90;;;;;;5345749;26;20000;-73
2024/04/12 06:25:49;;;;;;;8.75;5.57;;;29.00;99.90;;;;;;5346031;26;20001;-73
2024/04/12 06:28:16;;;;;;;11.18;6.15;;;27.80;99.90;;;;;;5346067;26;19993;-73
2024/04/12 06:30:43;;;;;;;13.10;6.38;;;26.40;99.90;;;;;;5345744;26;20459;-74
2024/04/12 06:33:12;;;;;;;9.18;6.03;;;25.10;99.90;;;;;;5345621;26;20342;-74
2024/04/12 06:35:40;;;;;;;15.07;6.80;;;23.60;99.90;;;;;;5345409;26;20001;-75
2024/04/12 06:38:08;;;;;;;10.98;6.45;;;22.30;99.90;;;;;;5380146;26;20381;-73
2024/04/12 06:40:37;;;;;;;12.73;6.07;;;21.10;99.90;;;;;;5380320;26;20032;-74
2024/04/12 06:43:11;;;;;;;12.98;5.78;;;20.10;99.90;;;;;;5379617;26;20376;-74
2024/04/12 06:45:43;;;;;;;13.23;6.37;;;19.90;1.00;;;;;;5413408;26;20016;-74
2024/04/12 06:48:19;;;;;;;14.02;6.22;;;19.50;99.90;;;;;;5345119;26;20125;-74
2024/04/12 06:50:55;;;;;;;12.65;6.40;;;19.40;1.00;;;;;;5345555;26;20004;-73
2024/04/12 06:53:21;;;;;;;;;;;19.10;1.00;;;;;;5346024;26;20333;-73
2024/04/12 06:55:55;;;;;;;14.90;7.30;;;19.10;1.00;;;;;;5310795;27;20318;-73
2024/04/12 06:58:25;;;;;;;14.25;6.93;;;18.80;1.00;;;;;;5311439;27;20001;-73
2024/04/12 07:00:54;;;;;;;12.05;6.07;;;18.50;1.00;;;;;;5311603;27;20005;-74
2024/04/12 07:03:22;;;;;;;10.00;6.57;;;18.50;1.00;;;;;;5243293;27;20006;-75
2024/04/12 07:05:48;;;;;;;15.18;6.45;;;18.60;1.00;;;;;;5243365;27;20010;-73
2024/04/12 07:08:16;;;;;;;14.18;6.43;;;18.70;1.00;;;;;;5209796;27;19996;-74
2024/04/12 07:10:48;;;;;;;11.43;6.03;;;18.80;1.00;;;;;;5209737;27;19999;-74
2024/04/12 07:13:15;;;;;;;15.27;6.68;;;18.70;1.00;;;;;;5209789;27;20047;-74
2024/04/12 07:15:40;;;;;;;10.25;6.60;;;18.30;1.00;;;;;;5159428;27;20069;-74
2024/04/12 07:18:11;;;;;;;9.85;5.07;;;18.40;1.00;;;;;;5115017;27;20053;-77
2024/04/12 07:20:40;;;;;;;11.63;5.60;;;18.40;1.00;;;;;;5177255;27;20007;-78
2024/04/12 07:23:10;;;;;;;10.20;5.38;;;18.40;1.00;;;;;;5177441;27;20011;-84
2024/04/12 07:25:39;;;;;;;10.50;5.43;;;18.30;1.00;;;;;;5176330;27;20028;-82
2024/04/12 07:28:08;;;;;;;9.57;5.10;;;18.20;1.00;;;;;;5208097;27;20006;-81
2024/04/12 07:30:33;;;;;;;11.65;4.97;;;18.30;1.00;;;;;;5177095;27;20076;-82
2024/04/12 07:32:59;;;;;;;10.20;4.93;;;18.10;1.00;;;;;;5201621;27;20474;-82
2024/04/12 07:35:26;;;;;;;9.48;4.35;;;18.00;1.00;;;;;;5242181;27;20056;-82
2024/04/12 07:37:59;;;;;;;10.48;4.63;;;18.20;1.00;;;;;;5241938;27;20015;-83
2024/04/12 07:40:30;;;;;;;8.75;4.38;;;18.20;1.00;;;;;;5187253;27;19991;-82
2024/04/12 07:42:57;;;;;;;6.70;4.30;;;18.40;1.00;;;;;;5210082;27;20006;-83
2024/04/12 07:45:25;;;;;;;8.05;4.25;;;18.80;1.00;;;;;;5209322;27;20000;-84
2024/04/12 07:47:52;;;;;;;8.32;4.10;;;18.90;1.00;;;;;;5209553;27;20027;-83
2024/04/12 07:50:21;;;;;;;12.50;5.18;;;19.10;1.00;;;;;;5275044;27;19995;-83
2024/04/12 07:52:50;;;;;;;9.93;4.30;;;19.00;1.00;;;;;;5275303;27;19998;-82
2024/04/12 07:55:23;;;;;;;5.47;3.67;;;18.70;1.00;;;;;;5276588;27;19994;-83
2024/04/12 07:57:52;;;;;;;7.10;4.38;;;18.80;1.00;;;;;;5276942;27;20334;-83
2024/04/12 08:00:27;;;;;;;8.15;4.60;;;19.10;1.00;;;;;;5211340;27;20043;-83
2024/04/12 08:02:55;;;;;;;8.95;4.32;;;19.10;1.00;;;;;;5277074;27;20319;-82
2024/04/12 08:05:25;;;;;;;10.55;4.63;;;19.10;1.00;;;;;;5276506;27;20335;-83
2024/04/12 08:07:56;;;;;;;9.02;3.75;;;18.90;1.00;;;;;;5281579;26;19998;-83
2024/04/12 08:10:41;;;;;;;8.23;4.18;;;18.80;1.00;;;;;;5346896;26;20328;-83
2024/04/12 08:13:10;;;;;;;7.72;4.78;;;18.80;1.00;;;;;;5379655;26;20007;-82
2024/04/12 08:15:41;;;;;;;5.90;3.92;;;18.60;1.00;;;;;;5379462;26;20008;-78
2024/04/12 08:18:07;;;;;;;7.28;3.83;;;18.60;1.00;;;;;;5379699;26;20443;-78
2024/04/12 08:20:39;;;;;;;11.50;4.43;;;18.60;1.00;;;;;;5379803;26;20007;-78
2024/04/12 08:23:05;;;;;;;8.20;4.68;;;18.70;1.00;;;;;;5383188;26;20062;-78
2024/04/12 08:25:36;;;;;;;10.95;3.70;;;18.80;1.00;;;;;;5382298;26;20040;-78
2024/04/12 08:28:06;;;;;;;7.57;3.70;;;18.80;1.00;;;;;;5382187;26;20001;-80
2024/04/12 08:30:33;;;;;;;6.47;3.72;;;18.80;1.00;;;;;;5382160;26;20008;-79
2024/04/12 08:33:02;;;;;;;6.65;3.33;;;19.00;1.00;;;;;;5382194;26;20022;-78
2024/04/12 08:35:29;;;;;;;10.07;4.40;;;18.80;3.00;;;;;;5382149;26;20074;-78
2024/04/12 08:37:54;;;;;;;7.75;3.38;;;18.80;1.00;;;;;;5379001;26;19992;-78
2024/04/12 08:40:21;;;;;;;8.82;3.70;;;18.70;1.00;;;;;;5379036;26;20328;-78
2024/04/12 08:42:47;;;;;;;7.60;3.55;;;18.50;1.00;;;;;;5379143;26;19992;-78
2024/04/12 08:45:17;;;;;;;6.72;3.58;;;18.40;20.80;;;;;;5378715;26;20000;-79
2024/04/12 08:48:04;;;;;;;5.18;3.22;;;18.10;44.50;;;;;;5378979;26;20432;-81
2024/04/12 08:50:35;;;;;;;6.75;3.53;;;18.20;80.70;;;;;;5379053;26;19996;-82
2024/04/12 08:53:11;;;;;;;6.60;4.00;;;18.20;85.80;;;;;;5378867;26;19996;-82
2024/04/12 08:55:42;;;;;;;12.05;5.53;;;18.00;96.50;;;;;;5378839;26;20402;-81
2024/04/12 08:58:10;;;;;;;6.97;3.95;;;18.00;99.90;;;;;;5379229;26;20008;-81
2024/04/12 09:00:38;;;;;;;7.88;4.40;;;17.90;99.90;;;;;;5378133;26;20313;-81
2024/04/12 09:03:10;;;;;;;15.23;4.90;;;17.90;99.90;;;;;;5343295;26;20009;-81
2024/04/12 09:05:38;;;;;;;13.70;5.22;;;17.70;99.90;;;;;;5345866;26;20600;-81
2024/04/12 09:08:05;;;;;;;8.18;4.97;;;17.70;99.90;;;;;;5346677;26;20024;-81
2024/04/12 09:10:36;;;;;;;6.03;4.68;;;17.90;99.90;;;;;;5278065;27;20124;-80
2024/04/12 09:13:07;;;;;;;11.10;5.30;;;17.90;99.90;;;;;;5278273;27;20005;-79
2024/04/12 09:15:43;;;;;;;6.68;3.97;;;17.80;99.90;;;;;;5244537;27;20003;-79
2024/04/12 09:18:15;;;;;;;9.05;4.20;;;17.70;99.90;;;;;;5244439;27;20029;-79
2024/04/12 09:20:44;;;;;;;39.78;25.55;;;17.80;99.90;;;;;;5178268;27;20060;-79
2024/04/12 09:23:14;;;;;;;13.45;7.45;;;17.60;99.90;;;;;;5210269;27;19991;-79
2024/04/12 09:25:44;;;;;;;8.95;3.83;;;17.60;99.90;;;;;;5177613;27;19992;-79
2024/04/12 09:28:12;;;;;;;8.48;3.50;;;17.80;99.90;;;;;;5177589;27;19996;-79
2024/04/12 09:33:27;;;;;;;5.75;3.08;;;17.90;99.90;;;;;;5178950;27;20003;-79
2024/04/12 09:36:02;;;;;;;5.13;3.28;;;17.80;99.90;;;;;;5145377;27;20338;-80
2024/04/12 09:38:28;;;;;;;5.75;2.85;;;17.70;99.90;;;;;;5167330;27;20008;-80
2024/04/12 09:41:03;;;;;;;7.45;3.78;;;17.70;99.90;;;;;;5170573;27;20374;-80
2024/04/12 09:43:36;;;;;;;6.13;3.10;;;17.50;99.90;;;;;;5145698;27;19993;-80
2024/04/12 09:46:08;;;;;;;7.28;3.50;;;17.20;99.90;;;;;;5145740;27;20103;-80
2024/04/12 10:38:44;;;;;;;5.53;2.55;;;17.10;1.00;;;;;;5385445;26;20007;-80
2024/04/12 10:41:10;;;;;;;8.98;2.70;;;17.10;1.00;;;;;;5383683;26;20008;-80
2024/04/12 10:43:38;;;;;;;5.95;2.65;;;17.10;1.00;;;;;;5415953;26;20056;-80
2024/04/12 10:46:10;;;;;;;12.55;3.05;;;17.20;1.00;;;;;;5345854;26;20029;-80
2024/04/12 10:48:37;;;;;;;6.53;2.88;;;17.30;1.00;;;;;;5345765;26;20447;-81
2024/04/12 10:51:08;;;;;;;4.20;2.30;;;17.10;1.00;;;;;;5276499;27;20056;-80
2024/04/12 10:53:38;;;;;;;9.18;2.92;;;17.10;1.00;;;;;;5243302;27;20006;-80
2024/04/12 10:56:07;;;;;;;6.10;2.20;;;17.10;1.00;;;;;;5177024;27;19996;-80
2024/04/12 10:58:33;;;;;;;10.07;2.55;;;16.90;1.00;;;;;;5176809;27;20007;-80
2024/04/12 11:01:04;;;;;;;4.75;2.33;;;16.90;1.00;;;;;;5176877;27;20012;-81
2024/04/12 11:03:29;;;;;;;7.90;2.60;;;16.90;1.00;;;;;;5177439;27;20028;-80
2024/04/12 11:06:10;;;;;;;6.22;2.38;;;16.80;1.00;;;;;;5176862;27;20337;-79
2024/04/12 11:08:36;;;;;;;8.85;3.03;;;16.80;1.00;;;;;;5177242;27;20077;-78
2024/04/12 11:11:19;;;;;;;7.65;2.72;;;16.80;1.00;;;;;;5176724;27;20009;-78
2024/04/12 11:13:52;;;;;;;8.20;4.03;;;16.70;1.00;;;;;;5144636;27;19997;-79
2024/04/12 11:33:31;;;;;;;5.65;2.38;;;17.90;1.00;;;;;;5178876;27;20020;-81
2024/04/12 11:36:05;;;;;;;5.72;2.53;;;18.00;1.00;;;;;;5176925;27;19996;-79
2024/04/12 11:38:37;;;;;;;6.03;2.70;;;17.90;99.90;;;;;;5176949;27;20011;-79
2024/04/12 11:41:04;;;;;;;6.68;2.33;;;17.80;99.90;;;;;;5176892;27;20000;-80
2024/04/12 11:43:32;;;;;;;13.35;2.47;;;17.80;99.90;;;;;;5176301;27;20080;-80
2024/04/12 11:45:58;;;;;;;8.18;2.60;;;17.80;1.00;;;;;;5176268;27;20072;-80
2024/04/12 11:48:28;;;;;;;10.40;2.67;;;17.60;1.00;;;;;;5176344;27;20043;-79
2024/04/12 11:50:54;;;;;;;8.15;2.83;;;17.60;1.00;;;;;;5144714;27;20001;-79
2024/04/12 11:53:21;;;;;;;10.98;3.08;;;17.60;99.90;;;;;;5176882;27;20451;-81
2024/04/12 11:55:48;;;;;;;10.25;3.03;;;17.60;99.90;;;;;;5143729;27;20012;-81
2024/04/12 11:58:14;;;;;;;11.77;3.33;;;17.60;1.00;;;;;;5122831;27;20053;-81
2024/04/12 12:00:41;;;;;;;7.68;3.08;;;17.70;1.00;;;;;;5143884;27;20050;-81
2024/04/12 12:03:15;;;;;;;15.85;3.17;;;17.60;1.00;;;;;;5144261;27;20061;-80
2024/04/12 12:05:45;;;;;;;10.55;3.50;;;17.50;1.00;;;;;;5144014;27;20042;-80
2024/04/12 12:08:13;;;;;;;7.57;2.88;;;17.40;1.00;;;;;;5141933;27;20032;-81
2024/04/12 12:10:44;;;;;;;5.72;2.42;;;17.20;1.00;;;;;;5175916;27;20071;-81
2024/04/12 12:13:10;;;;;;;8.23;2.85;;;17.40;1.00;;;;;;5176241;27;20011;-81
2024/04/12 12:15:35;;;;;;;5.75;2.65;;;17.50;1.00;;;;;;5175830;27;20472;-81
2024/04/12 12:18:01;;;;;;;8.35;3.10;;;17.70;1.00;;;;;;5176251;27;20041;-81
2024/04/12 12:20:30;;;;;;;6.47;2.97;;;17.90;99.90;;;;;;5176133;27;20011;-81
2024/04/12 12:22:56;;;;;;;9.43;2.97;;;17.90;99.90;;;;;;5205771;27;20478;-81
2024/04/12 12:25:26;;;;;;;5.10;2.80;;;18.00;99.90;;;;;;5179041;27;19996;-81
2024/04/12 12:27:54;;;;;;;11.23;3.78;;;18.10;99.90;;;;;;5208866;27;20011;-80
2024/04/12 12:30:22;;;;;;;6.85;2.80;;;18.00;99.90;;;;;;5209335;27;20000;-81
2024/04/12 12:32:49;;;;;;;9.05;3.40;;;17.90;99.90;;;;;;5218683;27;20027;-81
2024/04/12 12:35:22;;;;;;;7.90;3.13;;;17.70;99.90;;;;;;5251773;27;20009;-81
2024/04/12 12:37:51;;;;;;;8.68;3.08;;;17.80;99.90;;;;;;5241949;27;20315;-81
2024/04/12 12:40:21;;;;;;;9.05;3.28;;;17.80;99.90;;;;;;5243284;27;20574;-82
2024/04/12 12:42:47;;;;;;;5.90;2.72;;;17.80;99.90;;;;;;5275279;27;20425;-82
2024/04/12 12:45:16;;;;;;;6.10;3.00;;;17.60;99.90;;;;;;5278604;27;20045;-81
2024/04/12 12:47:43;;;;;;;4.88;2.67;;;17.40;99.90;;;;;;5278579;27;20006;-82
2024/04/12 12:50:19;;;;;;;7.22;2.72;;;17.30;99.90;;;;;;5278806;27;20353;-82
2024/04/12 12:52:49;;;;;;;8.57;3.03;;;17.30;1.00;;;;;;5278980;27;20011;-82
2024/04/12 12:55:16;;;;;;;8.68;3.33;;;17.20;1.00;;;;;;5278639;27;20002;-81
2024/04/12 12:57:44;;;;;;;7.80;3.20;;;17.00;1.00;;;;;;5278988;27;20451;-81
2024/04/12 13:00:18;;;;;;;9.88;3.38;;;17.20;1.00;;;;;;5278685;27;20065;-81
2024/04/12 13:02:45;;;;;;;7.13;3.10;;;17.00;1.00;;;;;;5278778;27;19995;-81
2024/04/12 13:05:14;;;;;;;7.45;3.80;;;16.90;1.00;;;;;;5278638;27;19998;-81
2024/04/12 13:07:40;;;;;;;7.07;3.42;;;17.10;1.00;;;;;;5279111;27;19998;-81
2024/04/12 13:10:12;;;;;;;7.82;3.42;;;17.50;1.00;;;;;;5312485;27;20057;-81
2024/04/12 13:12:38;;;;;;;6.95;3.20;;;17.50;1.00;;;;;;5313620;26;20008;-81
2024/04/12 13:15:05;;;;;;;7.85;3.20;;;17.50;1.00;;;;;;5381848;26;20136;-83
2024/04/12 13:17:36;;;;;;;9.02;3.65;;;17.60;99.90;;;;;;5382354;26;20331;-83
2024/04/12 13:20:06;;;;;;;13.07;4.32;;;17.80;99.90;;;;;;5382446;26;20007;-82
2024/04/12 13:22:32;;;;;;;8.55;4.13;;;17.80;99.90;;;;;;5381834;26;20117;-82
2024/04/12 13:25:00;;;;;;;7.45;3.78;;;17.80;99.90;;;;;;5382205;26;20416;-82
2024/04/12 13:27:29;;;;;;;8.55;3.90;;;17.90;99.90;;;;;;5278142;27;20458;-81
2024/04/12 13:29:57;;;;;;;5.13;3.42;;;17.80;99.90;;;;;;5278929;27;20023;-82
2024/04/12 13:32:23;;;;;;;8.93;3.80;;;17.80;99.90;;;;;;5278035;27;20002;-81
2024/04/12 13:34:48;;;;;;;6.88;3.72;;;17.90;99.90;;;;;;5277743;27;20441;-81
2024/04/12 13:37:14;;;;;;;9.32;3.63;;;17.90;99.90;;;;;;5278398;27;20004;-81
2024/04/12 13:39:40;;;;;;;9.88;4.03;;;18.00;99.90;;;;;;5278296;27;20504;-80
2024/04/12 13:42:12;;;;;;;6.25;3.88;;;18.20;99.90;;;;;;5211125;27;20061;-81
2024/04/12 13:52:53;;;;;;;5.95;3.72;;;19.50;99.90;;;;;;5178506;27;20076;-82
2024/04/12 13:55:20;;;;;;;5.80;3.33;;;19.70;99.90;;;;;;5177858;27;20004;-82
2024/04/12 13:57:47;;;;;;;7.60;3.42;;;19.50;99.90;;;;;;5177786;27;20008;-82
2024/04/12 14:00:26;;;;;;;5.43;3.50;;;19.20;99.90;;;;;;5178000;27;20001;-83
2024/04/12 14:02:54;;;;;;;5.25;3.45;;;19.30;99.90;;;;;;5195819;27;19995;-82
2024/04/12 14:05:20;;;;;;;11.77;3.90;;;19.20;99.90;;;;;;5286766;27;20390;-81
2024/04/12 14:07:49;;;;;;;7.22;4.07;;;19.10;99.90;;;;;;5311475;27;19997;-82
2024/04/12 14:10:20;;;;;;;5.50;3.63;;;19.30;99.90;;;;;;5311924;27;20037;-82